»·PEaware :: N360BG KSLC-KENV

N360BG :: KSLC-KENV

FLIGHT INFORMATION

Flight Status: Arrived
Operator: Privately registered:
United States
More flights under this callsign
Pilot: Brandon G. (13)
Aircraft: BEECH AIRCRAFT A90-E90 KING AIR
(BE9L)
More flights by this aircraft type
Origin: KSLC Salt Lake City Intl
United States
Destination: KENV Wendover
United States
More flights between these airports :: More routes between these airports
Route: TCH V32 BVL
File this flight plan on PilotEdge
Remarks:
Altitude:
(Current/Filed)
16,000ft
Speed:
(Current/Filed)
250kts
Departed: 13-Dec-17 08:09 PM
Arrived: 13-Dec-17 08:41 PM
Distance/Time
Traveled:
94nm/0:32
Distance/Time
To Go:
Arrived

Flight Plot

Page will automatically refresh every two minutes.

Flight plan parsing failed; only flown route is shown


Map Options




Map Legend


Flown Route
Filed Route
Departure Airport
Arrival Airport
Navaid (VOR, NDB)
Fix

Horizontal Profiles

Position Reports

Time Latitude Longitude Heading Altitude Ground
Speed
13-Dec-17 19:57 40.782718 -111.958825 266 4221ft 0kts
13-Dec-17 19:58 40.782718 -111.958825 266 4221ft 0kts
13-Dec-17 19:59 40.782718 -111.958825 266 4221ft 0kts
13-Dec-17 20:00 40.782718 -111.958825 266 4221ft 0kts
13-Dec-17 20:01 40.782718 -111.958825 266 4221ft 0kts
13-Dec-17 20:02 40.782718 -111.958825 266 4221ft 0kts
13-Dec-17 20:03 40.782718 -111.958825 266 4221ft 0kts
13-Dec-17 20:04 40.782718 -111.958825 266 4221ft 0kts
13-Dec-17 20:05 40.782718 -111.958825 266 4221ft 0kts
13-Dec-17 20:06 40.782718 -111.958825 266 4221ft 0kts
13-Dec-17 20:07 40.782718 -111.958825 266 4221ft 0kts
13-Dec-17 20:08 40.782718 -111.958825 266 4221ft 0kts
13-Dec-17 20:09 40.782639 -111.959169 252 4220ft 0kts
13-Dec-17 20:10 40.782052 -111.960013 183 4221ft 8kts
13-Dec-17 20:11 40.778170 -111.960606 195 4222ft 17kts
13-Dec-17 20:12 40.773324 -111.960622 180 4222ft 18kts
13-Dec-17 20:13 40.772988 -111.960704 211 4222ft 0kts
13-Dec-17 20:14 40.772986 -111.960705 211 4222ft 0kts
13-Dec-17 20:15 40.779624 -111.962124 354 4235ft 104kts
13-Dec-17 20:16 40.792996 -111.993713 270 5249ft 168kts
13-Dec-17 20:17 40.790826 -112.051208 272 7083ft 138kts
13-Dec-17 20:18 40.797716 -112.094839 291 8889ft 121kts
13-Dec-17 20:19 40.806718 -112.139455 291 9998ft 149kts
13-Dec-17 20:20 40.819045 -112.195787 290 11020ft 143kts
13-Dec-17 20:21 40.824037 -112.244022 281 12533ft 127kts
13-Dec-17 20:22 40.824365 -112.290443 278 13784ft 126kts
13-Dec-17 20:23 40.822660 -112.336941 276 14884ft 129kts
13-Dec-17 20:24 40.819920 -112.384585 275 15890ft 132kts
13-Dec-17 20:25 40.816247 -112.440298 272 16029ft 175kts
13-Dec-17 20:26 40.811152 -112.508659 271 16025ft 195kts
13-Dec-17 20:27 40.805633 -112.580669 271 16023ft 200kts
13-Dec-17 20:28 40.800100 -112.652765 270 16023ft 201kts
13-Dec-17 20:29 40.794198 -112.726261 270 16026ft 202kts
13-Dec-17 20:30 40.788367 -112.800216 270 16026ft 203kts
13-Dec-17 20:31 40.788433 -112.873674 277 16025ft 200kts
13-Dec-17 20:32 40.786076 -112.947481 273 16025ft 204kts
13-Dec-17 20:33 40.793853 -113.016198 277 16026ft 202kts
13-Dec-17 20:34 40.781536 -113.091090 249 16032ft 221kts
13-Dec-17 20:34 40.776724 -113.153329 274 16021ft 207kts
13-Dec-17 20:36 40.769605 -113.241560 272 16017ft 208kts
13-Dec-17 20:36 40.763642 -113.309598 271 15062ft 236kts
13-Dec-17 20:38 40.754631 -113.411415 270 13611ft 245kts
13-Dec-17 20:38 40.748088 -113.485636 269 12490ft 246kts
13-Dec-17 20:39 40.740338 -113.573191 269 11640ft 236kts
13-Dec-17 20:41 40.734081 -113.668331 269 10416ft 230kts
13-Dec-17 20:41 40.729775 -113.733538 268 9566ft 203kts
13-Dec-17 20:42 40.724896 -113.807108 267 8243ft 203kts
13-Dec-17 20:43 40.719926 -113.881105 266 6846ft 203kts
13-Dec-17 20:44 40.721009 -113.953480 267 5736ft 176kts
13-Dec-17 20:45 40.718987 -114.006982 270 4287ft 100kts
13-Dec-17 20:46 40.718973 -114.027995 270 4223ft 32kts
13-Dec-17 20:47 40.723547 -114.037537 313 4229ft 33kts
13-Dec-17 20:48 40.727227 -114.040608 179 4234ft 0kts
13-Dec-17 20:49 40.727227 -114.040608 179 4235ft 0kts
13-Dec-17 20:50 40.727227 -114.040608 179 4235ft 0kts
13-Dec-17 20:51 40.727227 -114.040608 179 4235ft 0kts
13-Dec-17 20:52 40.727227 -114.040608 179 4235ft 0kts
13-Dec-17 20:53 40.727227 -114.040608 179 4235ft 0kts
13-Dec-17 20:54 40.727227 -114.040608 179 4235ft 0kts
13-Dec-17 20:55 40.727227 -114.040608 179 4235ft 0kts
13-Dec-17 20:56 40.727227 -114.040608 179 4235ft 0kts
13-Dec-17 20:57 40.727227 -114.040608 179 4235ft 0kts
13-Dec-17 20:58 40.727227 -114.040608 179 4235ft 0kts
13-Dec-17 20:59 40.727227 -114.040608 179 4235ft 0kts
13-Dec-17 21:00 40.727227 -114.040608 179 4235ft 0kts

Navigation Log

Ident Type
Flight plan parsing failed, navigation log unavailable